Time;durP1;ratioP1;P1;durP2;ratioP2;P2;SDS_P1;SDS_P2;PMS_P1;PMS_P2;Temp;Humidity;BMP_temperature;BMP_pressure;BME280_temperature;BME280_humidity;BME280_pressure;Samples;Min_cycle;Max_cycle;Signal;HPM_P1;HPM_P2
2022/10/02 00:01:58;;;;;;;6.10;1.60;;;;;;;15.03;nan;99949.00;4923045;29;20207;-77
2022/10/02 00:04:40;;;;;;;2.15;1.67;;;;;;;15.08;nan;99952.13;4923125;29;20217;-77
2022/10/02 00:07:09;;;;;;;4.85;1.95;;;;;;;15.13;nan;99960.56;4922756;29;20238;-77
2022/10/02 00:09:41;;;;;;;2.65;1.45;;;;;;;15.13;nan;99960.56;4922627;29;20672;-77
2022/10/02 00:12:10;;;;;;;3.72;2.15;;;;;;;15.17;nan;99966.47;4922965;29;20222;-77
2022/10/02 00:14:39;;;;;;;3.33;1.60;;;;;;;15.17;nan;99975.22;4922460;29;20289;-76
2022/10/02 00:17:11;;;;;;;2.60;1.67;;;;;;;15.18;nan;99973.47;4922946;29;20249;-76
2022/10/02 00:19:36;;;;;;;2.35;1.80;;;;;;;15.19;nan;99972.47;4922684;29;20219;-77
2022/10/02 00:22:08;;;;;;;2.20;1.63;;;;;;;15.18;nan;99963.72;4923106;29;20205;-76
2022/10/02 00:25:00;;;;;;;3.35;2.47;;;;;;;15.21;nan;99978.50;4922492;29;20259;-77
2022/10/02 00:27:42;;;;;;;4.15;1.75;;;;;;;15.23;nan;99973.94;4922747;29;20226;-77
2022/10/02 00:30:11;;;;;;;1.67;1.38;;;;;;;15.26;nan;99976.34;4923003;29;20206;-77
2022/10/02 00:32:55;;;;;;;2.05;1.45;;;;;;;15.30;nan;99976.94;4922321;29;20192;-77
2022/10/02 00:35:35;;;;;;;2.40;1.70;;;;;;;15.33;nan;99976.72;4922513;29;20582;-77
2022/10/02 00:38:30;;;;;;;2.45;1.30;;;;;;;15.33;nan;99972.25;4922569;29;20209;-77
2022/10/02 00:41:15;;;;;;;10.15;2.03;;;;;;;15.34;nan;99979.25;4923584;29;20202;-77
2022/10/02 00:43:59;;;;;;;4.60;2.50;;;;;;;15.37;nan;99981.66;4922094;29;20273;-76
2022/10/02 00:46:47;;;;;;;2.63;1.30;;;;;;;15.39;nan;99970.94;4922356;29;20215;-77
2022/10/02 00:49:20;;;;;;;1.80;1.70;;;;;;;15.39;nan;99973.56;4922135;29;20684;-76
2022/10/02 00:52:09;;;;;;;10.07;2.40;;;;;;;15.41;nan;99971.66;4922001;29;20286;-77
2022/10/02 00:54:52;;;;;;;2.67;1.63;;;;;;;15.42;nan;99973.38;4922172;29;20678;-77
2022/10/02 00:57:49;;;;;;;2.00;1.63;;;;;;;15.46;nan;99977.44;4922388;29;20255;-77
2022/10/02 01:00:17;;;;;;;1.92;1.80;;;;;;;15.46;nan;99969.50;4922693;29;20186;-76
2022/10/02 01:02:58;;;;;;;1.67;1.58;;;;;;;15.49;nan;99972.72;4922443;29;20560;-77
2022/10/02 01:05:26;;;;;;;2.75;2.42;;;;;;;15.51;nan;99974.44;4922654;29;20696;-76
2022/10/02 01:07:53;;;;;;;4.80;1.85;;;;;;;15.53;nan;99969.84;4923175;29;20217;-77
2022/10/02 01:10:24;;;;;;;3.80;1.80;;;;;;;15.53;nan;99978.66;4925713;29;20551;-76
2022/10/02 01:12:50;;;;;;;2.58;1.70;;;;;;;15.52;nan;99973.47;4925675;28;20659;-76
2022/10/02 01:15:21;;;;;;;1.48;1.30;;;;;;;15.51;nan;99977.91;4925851;29;20233;-76
2022/10/02 01:17:49;;;;;;;4.38;1.98;;;;;;;15.51;nan;99975.28;4925947;29;20200;-77
2022/10/02 01:20:21;;;;;;;4.93;1.60;;;;;;;15.49;nan;99983.31;4925797;29;20198;-77
2022/10/02 01:23:01;;;;;;;5.57;1.65;;;;;;;15.48;nan;99989.59;4925784;29;20465;-77
2022/10/02 01:25:27;;;;;;;1.98;1.58;;;;;;;15.50;nan;99984.19;4926390;29;20217;-77
2022/10/02 01:27:53;;;;;;;1.93;1.43;;;;;;;15.51;nan;99979.75;4925938;29;20237;-77
2022/10/02 01:30:20;;;;;;;2.67;1.30;;;;;;;15.52;nan;99974.31;4926801;29;20456;-77
2022/10/02 01:32:50;;;;;;;2.05;1.50;;;;;;;15.54;nan;99974.19;4925240;29;20505;-77
2022/10/02 01:35:19;;;;;;;1.63;1.52;;;;;;;15.56;nan;99980.22;4930746;29;20208;-77
2022/10/02 01:37:47;;;;;;;2.70;1.67;;;;;;;15.57;nan;99971.31;4925375;29;20563;-77
2022/10/02 01:40:33;;;;;;;4.20;1.70;;;;;;;15.56;nan;99983.69;4925688;29;20186;-77
2022/10/02 01:43:11;;;;;;;2.03;1.83;;;;;;;15.60;nan;99968.41;4925355;29;20617;-77
2022/10/02 01:46:17;;;;;;;2.13;1.55;;;;;;;15.60;nan;99969.25;4925695;29;20499;-77
2022/10/02 01:48:51;;;;;;;5.45;1.75;;;;;;;15.60;nan;99965.75;4924665;29;20738;-77
2022/10/02 01:51:31;;;;;;;1.60;1.42;;;;;;;15.62;nan;99967.31;4925567;29;20312;-77
2022/10/02 01:54:06;;;;;;;3.50;1.75;;;;;;;15.64;nan;99957.47;4924968;29;20668;-77
2022/10/02 01:57:17;;;;;;;1.90;1.55;;;;;;;15.64;nan;99970.69;4925521;28;20221;-77
2022/10/02 02:00:14;;;;;;;1.27;1.10;;;;;;;15.65;nan;99959.13;4755752;29;5001067;-77
2022/10/02 02:03:15;;;;;;;3.38;2.15;;;;;;;15.67;nan;99959.03;4919963;29;20206;-77
2022/10/02 02:06:07;;;;;;;2.45;1.65;;;;;;;15.65;nan;99960.94;4923274;29;20439;-77
2022/10/02 02:08:55;;;;;;;2.55;1.80;;;;;;;15.65;nan;99966.25;4925292;29;20228;-77
2022/10/02 02:11:21;;;;;;;1.85;1.40;;;;;;;15.63;nan;99966.34;4924984;29;20593;-77
2022/10/02 02:13:52;;;;;;;2.38;2.10;;;;;;;15.62;nan;99967.31;4925370;29;20198;-77
2022/10/02 02:16:27;;;;;;;4.07;1.83;;;;;;;15.61;nan;99970.94;4924813;29;20228;-77
2022/10/02 02:19:02;;;;;;;3.35;1.75;;;;;;;15.61;nan;99976.25;4925013;29;20202;-77
2022/10/02 02:21:36;;;;;;;3.58;1.52;;;;;;;15.59;nan;99978.16;4924830;29;20639;-77
2022/10/02 02:24:25;;;;;;;3.70;2.00;;;;;;;15.57;nan;99980.09;4924842;29;20253;-77
2022/10/02 02:26:56;;;;;;;3.83;1.85;;;;;;;15.54;nan;99976.84;4926044;28;20272;-77
2022/10/02 02:29:25;;;;;;;5.25;2.03;;;;;;;15.51;nan;99977.91;4924901;29;20212;-76
2022/10/02 02:31:54;;;;;;;2.83;2.05;;;;;;;15.49;nan;99985.13;4925262;29;20217;-77
2022/10/02 02:34:34;;;;;;;1.90;1.63;;;;;;;15.46;nan;99977.44;4925467;29;20216;-77
2022/10/02 02:37:05;;;;;;;2.35;1.80;;;;;;;15.43;nan;99982.97;4924391;29;20588;-77
2022/10/02 02:39:51;;;;;;;2.00;1.70;;;;;;;15.41;nan;99979.59;4925048;29;20695;-77
2022/10/02 02:42:21;;;;;;;4.35;2.05;;;;;;;15.39;nan;99979.75;4925029;29;20329;-77
2022/10/02 02:44:53;;;;;;;2.22;2.03;;;;;;;15.40;nan;99975.28;4924472;29;20655;-77
2022/10/02 02:47:39;;;;;;;6.47;2.50;;;;;;;15.39;nan;99971.78;4924532;29;20505;-75
2022/10/02 02:50:15;;;;;;;3.05;2.45;;;;;;;15.41;nan;99963.72;4924119;29;20194;-75
2022/10/02 02:52:47;;;;;;;2.67;2.28;;;;;;;15.44;nan;99968.75;4924049;29;20818;-75
2022/10/02 02:55:25;;;;;;;2.75;2.35;;;;;;;15.45;nan;99965.19;4924113;29;20196;-75
2022/10/02 02:58:06;;;;;;;3.97;1.70;;;;;;;15.48;nan;99964.94;4923630;29;20201;-75
2022/10/02 03:00:32;;;;;;;2.60;1.42;;;;;;;15.50;nan;99960.38;4923972;29;20193;-75
2022/10/02 03:02:57;;;;;;;4.47;1.97;;;;;;;15.56;nan;99953.75;4923545;29;20179;-74
2022/10/02 03:05:23;;;;;;;3.13;1.87;;;;;;;15.59;nan;99949.03;4923500;29;20616;-75
2022/10/02 03:08:17;;;;;;;2.55;1.50;;;;;;;15.63;nan;99953.13;4923658;29;20782;-75
2022/10/02 03:11:02;;;;;;;3.00;1.73;;;;;;;15.67;nan;99959.88;4923243;29;20740;-75
2022/10/02 03:13:38;;;;;;;1.42;1.33;;;;;;;15.74;nan;99954.94;4923807;29;20197;-75
2022/10/02 03:16:28;;;;;;;1.77;1.65;;;;;;;15.80;nan;99948.34;4923223;29;20632;-75
2022/10/02 03:19:22;;;;;;;3.25;1.80;;;;;;;15.85;nan;99948.78;4920235;28;20304;-75
2022/10/02 03:22:19;;;;;;;1.85;1.50;;;;;;;15.89;nan;99945.78;4926595;29;20194;-75
2022/10/02 03:24:54;;;;;;;2.40;1.60;;;;;;;15.92;nan;99940.22;4923804;29;20414;-75
2022/10/02 03:27:33;;;;;;;2.95;1.50;;;;;;;15.95;nan;99927.72;4923572;29;20524;-75
2022/10/02 03:30:08;;;;;;;2.00;1.80;;;;;;;15.99;nan;99945.06;4923340;29;20197;-75
2022/10/02 03:32:35;;;;;;;2.58;1.67;;;;;;;16.02;nan;99945.63;4923144;29;20185;-75
2022/10/02 03:35:03;;;;;;;2.28;1.25;;;;;;;16.06;nan;99943.56;4923850;29;20781;-74
2022/10/02 03:37:30;;;;;;;1.73;1.63;;;;;;;16.07;nan;99935.50;4924153;29;20269;-75
2022/10/02 03:40:00;;;;;;;2.40;1.20;;;;;;;16.11;nan;99925.50;4923500;29;20726;-75
2022/10/02 03:42:29;;;;;;;1.45;1.10;;;;;;;16.12;nan;99927.16;4923915;29;20213;-75
2022/10/02 03:44:54;;;;;;;2.83;1.20;;;;;;;16.14;nan;99933.19;4923752;29;20588;-74
2022/10/02 03:47:20;;;;;;;8.57;2.17;;;;;;;16.15;nan;99930.44;4923648;29;20631;-75
2022/10/02 03:49:45;;;;;;;6.87;2.40;;;;;;;16.18;nan;99933.81;4923293;29;20190;-75
2022/10/02 03:52:15;;;;;;;2.23;1.20;;;;;;;16.19;nan;99932.81;4923590;29;20197;-75
2022/10/02 03:54:40;;;;;;;1.20;1.10;;;;;;;16.19;nan;99938.97;4923542;29;20221;-75
2022/10/02 03:57:11;;;;;;;3.20;1.20;;;;;;;16.21;nan;99931.72;4922777;29;20603;-75
2022/10/02 04:00:00;;;;;;;2.28;1.20;;;;;;;16.23;nan;99931.59;4923375;29;20676;-75
2022/10/02 04:02:41;;;;;;;2.63;1.20;;;;;;;16.23;nan;99931.59;4922965;29;20191;-75
2022/10/02 04:05:18;;;;;;;1.95;1.10;;;;;;;16.24;nan;99928.00;4922600;29;20203;-75
2022/10/02 04:07:47;;;;;;;1.90;1.30;;;;;;;16.24;nan;99920.88;4923521;29;20302;-76
2022/10/02 04:10:12;;;;;;;1.40;1.30;;;;;;;16.25;nan;99927.00;4923479;29;20202;-76
2022/10/02 04:12:46;;;;;;;3.23;2.17;;;;;;;16.24;nan;99926.16;4923371;29;20461;-75
2022/10/02 04:15:24;;;;;;;4.63;1.63;;;;;;;16.24;nan;99920.88;4922977;29;20246;-76
2022/10/02 04:18:00;;;;;;;1.70;1.40;;;;;;;16.24;nan;99928.00;4922862;29;20540;-76
2022/10/02 04:20:40;;;;;;;2.33;2.00;;;;;;;16.23;nan;99923.63;4923426;29;20194;-75
2022/10/02 04:23:14;;;;;;;1.45;1.35;;;;;;;16.24;nan;99922.69;4923412;29;20655;-76
2022/10/02 04:25:46;;;;;;;1.75;1.50;;;;;;;16.25;nan;99929.66;4923168;29;20296;-76
2022/10/02 04:28:16;;;;;;;3.65;1.48;;;;;;;16.26;nan;99918.94;4921669;29;20592;-76
2022/10/02 04:30:41;;;;;;;2.50;1.40;;;;;;;16.29;nan;99909.91;4921041;29;20293;-76
2022/10/02 04:33:12;;;;;;;2.10;1.30;;;;;;;16.29;nan;99912.56;4923227;29;20251;-76
2022/10/02 04:36:03;;;;;;;4.88;1.80;;;;;;;16.30;nan;99898.31;4923300;29;20567;-75
2022/10/02 04:38:53;;;;;;;2.30;1.20;;;;;;;16.31;nan;99905.28;4937787;29;20323;-76
2022/10/02 04:41:35;;;;;;;8.63;1.75;;;;;;;16.32;nan;99901.69;4923172;29;20284;-76
2022/10/02 04:44:33;;;;;;;1.95;1.30;;;;;;;16.33;nan;99898.06;4925818;29;20387;-76
2022/10/02 04:47:20;;;;;;;2.60;1.40;;;;;;;16.32;nan;99893.72;4926653;29;20209;-76
2022/10/02 04:49:54;;;;;;;4.35;1.60;;;;;;;16.32;nan;99883.97;4927691;29;20209;-76
2022/10/02 04:52:40;;;;;;;3.17;1.50;;;;;;;16.34;nan;99886.50;4926730;29;20238;-76
2022/10/02 04:55:28;;;;;;;1.80;1.50;;;;;;;16.35;nan;99890.81;4926485;29;20198;-76
2022/10/02 04:58:13;;;;;;;2.60;1.83;;;;;;;16.36;nan;99888.06;4760717;28;5001247;-76
2022/10/02 05:00:50;;;;;;;2.15;1.73;;;;;;;16.39;nan;99884.31;4931126;29;20545;-75
2022/10/02 05:03:38;;;;;;;1.55;1.45;;;;;;;16.40;nan;99883.34;4926244;29;20284;-76
2022/10/02 05:06:09;;;;;;;2.95;1.42;;;;;;;16.44;nan;99883.91;4925458;29;20240;-78
2022/10/02 05:08:56;;;;;;;3.90;1.80;;;;;;;16.44;nan;99871.47;4926735;29;20233;-78
2022/10/02 05:11:42;;;;;;;1.88;1.77;;;;;;;16.46;nan;99868.72;4926992;29;20732;-75
2022/10/02 05:14:28;;;;;;;1.75;1.58;;;;;;;16.47;nan;99871.25;4927392;29;20201;-76
2022/10/02 05:17:26;;;;;;;4.50;1.80;;;;;;;16.49;nan;99869.28;4927277;29;20281;-78
2022/10/02 05:19:56;;;;;;;2.20;1.63;;;;;;;16.51;nan;99866.53;4931642;29;20197;-78
2022/10/02 05:22:43;;;;;;;3.03;1.40;;;;;;;16.54;nan;99877.69;4926758;29;20194;-77
2022/10/02 05:25:31;;;;;;;1.42;1.20;;;;;;;16.54;nan;99875.06;4926801;29;20389;-78
2022/10/02 05:27:59;;;;;;;1.60;1.30;;;;;;;16.55;nan;99878.53;4926328;29;20228;-78
2022/10/02 05:30:33;;;;;;;2.30;1.33;;;;;;;16.56;nan;99880.25;4926493;29;20280;-78
2022/10/02 05:33:22;;;;;;;1.70;1.50;;;;;;;16.59;nan;99878.16;4926190;29;20186;-77
2022/10/02 05:36:12;;;;;;;2.03;1.85;;;;;;;16.64;nan;99871.66;4926058;29;20252;-78
2022/10/02 05:38:55;;;;;;;2.13;1.20;;;;;;;16.65;nan;99871.50;4926416;29;20198;-78
2022/10/02 05:41:38;;;;;;;3.97;1.65;;;;;;;16.68;nan;99875.69;4927080;29;20280;-79
2022/10/02 05:44:11;;;;;;;2.72;1.88;;;;;;;16.69;nan;99877.38;4926670;29;20189;-78
2022/10/02 05:46:49;;;;;;;3.97;1.40;;;;;;;16.70;nan;99871.94;4926493;29;20266;-78
2022/10/02 05:49:19;;;;;;;3.22;1.58;;;;;;;16.69;nan;99872.06;4926293;29;20221;-78
2022/10/02 05:52:05;;;;;;;1.92;1.25;;;;;;;16.71;nan;99880.75;4925800;28;20193;-78
2022/10/02 05:54:30;;;;;;;2.22;1.90;;;;;;;16.73;nan;99865.53;4924703;29;20842;-78
2022/10/02 05:57:26;;;;;;;3.60;1.77;;;;;;;16.74;nan;99865.44;4925479;29;20262;-78
2022/10/02 06:00:25;;;;;;;3.58;1.42;;;;;;;16.77;nan;99874.97;4924817;29;20625;-78
2022/10/02 06:03:00;;;;;;;1.40;1.20;;;;;;;16.79;nan;99867.69;4925699;29;20241;-78
2022/10/02 06:05:47;;;;;;;2.08;1.40;;;;;;;16.81;nan;99877.22;4925617;29;20201;-78
2022/10/02 06:08:19;;;;;;;2.08;1.30;;;;;;;16.84;nan;99878.75;4925560;29;20225;-78
2022/10/02 06:10:53;;;;;;;2.72;1.45;;;;;;;16.87;nan;99869.69;4925865;29;20396;-78
2022/10/02 06:13:22;;;;;;;5.95;2.53;;;;;;;16.89;nan;99873.06;4925648;29;20218;-78
2022/10/02 06:16:02;;;;;;;1.45;1.35;;;;;;;16.89;nan;99879.22;4925501;29;20233;-79
2022/10/02 06:18:32;;;;;;;2.15;1.40;;;;;;;16.91;nan;99874.63;4924640;29;20188;-78
2022/10/02 06:21:13;;;;;;;1.85;1.30;;;;;;;16.95;nan;99867.22;4924617;29;20228;-78
2022/10/02 06:23:44;;;;;;;1.95;1.58;;;;;;;16.96;nan;99861.81;4925289;28;20199;-78
2022/10/02 06:26:15;;;;;;;1.95;1.20;;;;;;;16.99;nan;99856.22;4923906;29;20652;-78
2022/10/02 06:28:47;;;;;;;3.05;1.20;;;;;;;17.06;nan;99859.16;4925373;29;20254;-78
2022/10/02 06:31:20;;;;;;;1.80;1.15;;;;;;;17.11;nan;99861.44;4925046;29;20199;-78
2022/10/02 06:33:46;;;;;;;4.00;1.50;;;;;;;17.14;nan;99866.47;4925158;29;20248;-78
2022/10/02 06:36:36;;;;;;;3.17;1.55;;;;;;;17.17;nan;99855.59;4924719;29;20276;-78
2022/10/02 06:39:30;;;;;;;3.10;1.38;;;;;;;17.21;nan;99864.97;4924995;29;20414;-78
2022/10/02 06:42:07;;;;;;;4.43;2.63;;;;;;;17.24;nan;99867.34;4924379;29;20202;-78
2022/10/02 06:44:53;;;;;;;1.15;1.05;;;;;;;17.28;nan;99873.22;4924599;29;20289;-78
2022/10/02 06:47:33;;;;;;;1.45;1.30;;;;;;;17.31;nan;99879.13;4924699;29;20467;-78
2022/10/02 06:50:22;;;;;;;1.98;1.60;;;;;;;17.31;nan;99880.91;4924510;29;20205;-78
2022/10/02 06:53:00;;;;;;;2.55;1.45;;;;;;;17.33;nan;99881.63;4924317;29;20613;-78
2022/10/02 06:55:41;;;;;;;1.98;1.08;;;;;;;17.36;nan;99889.31;4924565;29;20219;-78
2022/10/02 06:58:22;;;;;;;2.63;1.50;;;;;;;17.42;nan;99878.19;4923514;29;20192;-77
2022/10/02 07:01:29;;;;;;;1.50;1.20;;;;;;;17.48;nan;99875.00;4924430;29;20189;-78
2022/10/02 07:04:10;;;;;;;1.55;1.10;;;;;;;17.58;nan;99880.31;4923729;29;20571;-78
2022/10/02 07:06:53;;;;;;;2.80;1.20;;;;;;;17.64;nan;99874.47;4923823;29;20248;-78
2022/10/02 07:09:35;;;;;;;4.25;1.20;;;;;;;17.70;nan;99888.03;4924168;29;20693;-78
2022/10/02 07:12:34;;;;;;;1.70;1.60;;;;;;;17.76;nan;99873.38;4922523;29;20212;-78
2022/10/02 07:15:24;;;;;;;4.18;1.75;;;;;;;17.85;nan;99871.75;4923755;29;20230;-78
2022/10/02 07:17:55;;;;;;;3.10;1.42;;;;;;;17.99;nan;99883.78;4924228;29;20194;-78
2022/10/02 07:20:29;;;;;;;2.05;1.27;;;;;;;18.13;nan;99894.00;4923933;29;20699;-78
2022/10/02 07:23:16;;;;;;;1.95;1.10;;;;;;;18.24;nan;99893.88;4924109;29;20755;-78
2022/10/02 07:25:55;;;;;;;2.33;1.30;;;;;;;18.28;nan;99903.25;4923872;29;20209;-78
2022/10/02 07:28:42;;;;;;;1.20;1.00;;;;;;;18.26;nan;99883.09;4938022;29;20460;-78
2022/10/02 07:31:39;;;;;;;3.33;1.67;;;;;;;18.25;nan;99890.22;4923102;29;20276;-78
2022/10/02 07:34:25;;;;;;;1.20;1.00;;;;;;;18.26;nan;99885.78;4924612;29;20416;-78
2022/10/02 07:37:04;;;;;;;0.80;0.70;;;;;;;18.27;nan;99885.63;4924097;29;20248;-75
2022/10/02 07:39:41;;;;;;;2.50;1.07;;;;;;;18.29;nan;99875.69;4923421;29;20206;-76
2022/10/02 07:42:13;;;;;;;1.10;0.95;;;;;;;18.32;nan;99872.72;4923434;29;20472;-76
2022/10/02 07:44:54;;;;;;;2.13;1.00;;;;;;;18.44;nan;99877.91;4923350;29;20714;-76
2022/10/02 07:47:38;;;;;;;1.27;1.00;;;;;;;18.61;nan;99881.69;4923149;29;20235;-75
2022/10/02 07:50:39;;;;;;;1.30;0.90;;;;;;;18.85;nan;99870.56;4923109;29;20438;-76
2022/10/02 07:53:16;;;;;;;1.63;0.90;;;;;;;19.05;nan;99877.53;4923188;29;20525;-76
2022/10/02 07:55:47;;;;;;;0.90;0.80;;;;;;;19.51;nan;99875.78;4923034;29;20564;-76
2022/10/02 07:58:27;;;;;;;0.80;0.77;;;;;;;20.41;nan;99868.69;4922998;29;21041;-76
2022/10/02 08:01:01;;;;;;;1.03;0.93;;;;;;;21.34;nan;99865.47;4923053;29;20444;-76
2022/10/02 08:03:59;;;;;;;1.03;0.80;;;;;;;22.05;nan;99872.19;4923250;29;20437;-76
2022/10/02 08:06:25;;;;;;;2.40;1.37;;;;;;;22.33;nan;99878.09;4923034;29;20477;-76
2022/10/02 08:08:54;;;;;;;0.80;0.70;;;;;;;22.81;nan;99870.19;4922802;29;20914;-76
2022/10/02 08:11:31;;;;;;;0.70;0.60;;;;;;;23.30;nan;99862.88;4923233;29;20634;-76
2022/10/02 08:14:15;;;;;;;1.00;0.70;;;;;;;23.81;nan;99851.75;4923322;29;20441;-76
2022/10/02 08:17:05;;;;;;;0.70;0.60;;;;;;;24.06;nan;99849.75;4922822;29;20890;-76
2022/10/02 08:19:48;;;;;;;0.83;0.70;;;;;;;24.33;nan;99848.38;4922316;29;20442;-76
2022/10/02 08:22:33;;;;;;;1.00;0.70;;;;;;;24.20;nan;99845.47;4922529;29;20767;-76
2022/10/02 08:25:27;;;;;;;1.10;0.80;;;;;;;23.72;nan;99847.47;4924410;29;20451;-76
2022/10/02 08:28:01;;;;;;;0.87;0.80;;;;;;;23.56;nan;99856.41;4922625;29;20476;-76
2022/10/02 08:30:27;;;;;;;1.00;0.80;;;;;;;23.50;nan;99852.59;4922885;29;20437;-76
2022/10/02 08:32:53;;;;;;;0.70;0.70;;;;;;;23.40;nan;99847.44;4922933;29;20580;-76
2022/10/02 08:35:20;;;;;;;0.80;0.70;;;;;;;23.16;nan;99851.03;4922822;29;20530;-76
2022/10/02 08:38:09;;;;;;;2.80;0.60;;;;;;;22.86;nan;99849.09;4923070;29;20425;-75
2022/10/02 08:40:47;;;;;;;0.67;0.60;;;;;;;22.49;nan;99847.81;4921773;29;20453;-76
2022/10/02 08:43:30;;;;;;;0.80;0.60;;;;;;;22.26;nan;99853.84;4923433;29;20455;-76
2022/10/02 08:46:34;;;;;;;2.80;0.77;;;;;;;22.16;nan;99850.47;4937375;29;20484;-77
2022/10/02 08:49:00;;;;;;;1.53;0.63;;;;;;;21.82;nan;99845.28;4923113;29;20482;-76
2022/10/02 08:51:47;;;;;;;0.80;0.80;;;;;;;21.48;nan;99853.34;4923952;29;20459;-75
2022/10/02 08:54:35;;;;;;;1.17;0.70;;;;;;;20.93;nan;99850.06;4927975;29;20799;-79
2022/10/02 08:57:19;;;;;;;1.07;0.63;;;;;;;20.46;nan;99862.91;4927808;29;20513;-79
2022/10/02 09:00:08;;;;;;;1.43;0.80;;;;;;;20.09;nan;99863.91;4925851;29;20474;-78
2022/10/02 09:03:08;;;;;;;0.90;0.70;;;;;;;19.81;nan;99877.31;4925983;29;21075;-78
2022/10/02 09:06:11;;;;;;;1.67;0.80;;;;;;;19.54;nan;99869.31;4927475;29;20544;-77
2022/10/02 09:09:06;;;;;;;0.90;0.80;;;;;;;19.37;nan;99869.13;4923187;29;20519;-77
2022/10/02 09:11:50;;;;;;;1.13;0.83;;;;;;;19.27;nan;99867.50;4923150;29;20464;-77
2022/10/02 09:14:35;;;;;;;1.80;0.90;;;;;;;19.24;nan;99860.63;4923471;29;20479;-77
2022/10/02 09:17:11;;;;;;;0.80;0.60;;;;;;;19.31;nan;99866.19;4922729;29;20485;-76
2022/10/02 09:19:40;;;;;;;0.80;0.70;;;;;;;19.42;nan;99864.19;4922830;29;20454;-77
2022/10/02 09:22:45;;;;;;;1.00;0.90;;;;;;;19.62;nan;99864.91;4921678;29;20456;-77
2022/10/02 09:25:34;;;;;;;1.23;0.70;;;;;;;19.78;nan;99850.97;4922431;29;21143;-76
2022/10/02 09:28:37;;;;;;;1.17;1.07;;;;;;;19.84;nan;99857.50;4922641;29;20496;-77
2022/10/02 09:31:17;;;;;;;1.37;0.70;;;;;;;19.74;nan;99862.06;4924944;29;20673;-77
2022/10/02 09:34:08;;;;;;;0.70;0.70;;;;;;;19.64;nan;99844.28;4926081;29;20539;-77
2022/10/02 09:37:07;;;;;;;0.80;0.80;;;;;;;19.56;nan;99846.03;4924472;29;20462;-76
2022/10/02 09:40:24;;;;;;;0.70;0.57;;;;;;;19.45;nan;99845.25;4925927;29;20453;-77
2022/10/02 09:43:22;;;;;;;0.70;0.67;;;;;;;19.37;nan;99850.47;4940014;28;20528;-77
2022/10/02 09:46:11;;;;;;;0.90;0.70;;;;;;;19.37;nan;99844.31;4926221;29;20469;-77
2022/10/02 09:49:01;;;;;;;1.43;1.33;;;;;;;19.34;nan;99844.63;4926480;29;20504;-77
2022/10/02 09:52:01;;;;;;;1.10;0.60;;;;;;;19.31;nan;99839.56;4925950;28;20567;-77
2022/10/02 09:54:42;;;;;;;1.03;0.83;;;;;;;19.29;nan;99836.22;4925521;29;20572;-74
2022/10/02 09:57:30;;;;;;;1.10;0.80;;;;;;;19.27;nan;99841.69;4925528;29;20485;-74
2022/10/02 10:00:14;;;;;;;2.17;1.10;;;;;;;19.26;nan;99856.00;4925955;29;20442;-74
2022/10/02 10:03:15;;;;;;;0.70;0.60;;;;;;;19.21;nan;99848.44;4926151;29;20559;-74
2022/10/02 10:06:07;;;;;;;0.70;0.70;;;;;;;19.16;nan;99839.22;4925810;29;20505;-75
2022/10/02 10:09:11;;;;;;;3.43;0.87;;;;;;;19.06;nan;99841.91;4925124;29;20544;-74
2022/10/02 10:11:56;;;;;;;1.00;0.90;;;;;;;19.06;nan;99833.94;4926469;29;20536;-77
2022/10/02 10:14:32;;;;;;;1.90;0.80;;;;;;;19.06;nan;99838.44;4925855;29;20479;-77
2022/10/02 10:17:37;;;;;;;1.30;0.90;;;;;;;19.03;nan;99831.56;4925899;29;20473;-78
2022/10/02 10:20:21;;;;;;;0.93;0.77;;;;;;;19.00;nan;99831.88;4926262;29;20942;-77
2022/10/02 10:23:06;;;;;;;6.10;1.50;;;;;;;18.94;nan;99841.28;4926135;29;20741;-77
2022/10/02 10:26:02;;;;;;;1.17;0.90;;;;;;;18.93;nan;99836.94;4926705;29;20561;-77
2022/10/02 10:29:02;;;;;;;1.03;0.90;;;;;;;18.89;nan;99835.53;4926139;29;20552;-78
2022/10/02 10:31:51;;;;;;;1.90;0.90;;;;;;;18.85;nan;99843.97;4926262;29;20450;-78
2022/10/02 10:35:10;;;;;;;1.20;0.90;;;;;;;18.83;nan;99838.78;4925343;29;21155;-77
2022/10/02 10:41:10;;;;;;;2.50;0.80;;;;;;;18.77;nan;99853.53;4925918;29;21123;-78
2022/10/02 10:43:54;;;;;;;2.93;0.70;;;;;;;18.74;nan;99851.16;4926198;29;20459;-79
2022/10/02 10:46:47;;;;;;;1.83;0.70;;;;;;;18.72;nan;99845.09;4925982;29;20476;-79
2022/10/02 10:49:16;;;;;;;2.33;1.00;;;;;;;18.74;nan;99843.16;4925665;29;20577;-78
2022/10/02 10:52:29;;;;;;;0.90;0.80;;;;;;;18.76;nan;99840.34;4925514;29;20946;-78
2022/10/02 10:55:13;;;;;;;0.70;0.60;;;;;;;18.75;nan;99836.03;4926057;29;20474;-78
2022/10/02 10:57:58;;;;;;;0.90;0.80;;;;;;;18.75;nan;99838.69;4926650;29;20441;-79
2022/10/02 11:00:58;;;;;;;1.20;0.90;;;;;;;18.78;nan;99836.56;4925759;29;20464;-78
2022/10/02 11:03:50;;;;;;;1.10;1.00;;;;;;;18.84;nan;99848.44;4925512;29;20467;-78
2022/10/02 11:06:35;;;;;;;1.27;1.00;;;;;;;18.88;nan;99844.53;4913566;29;20535;-77
2022/10/02 11:09:25;;;;;;;1.23;0.90;;;;;;;18.94;nan;99837.78;4927848;29;20596;-77
2022/10/02 11:12:05;;;;;;;3.23;0.93;;;;;;;19.04;nan;99833.25;4926137;29;20509;-77
2022/10/02 11:14:33;;;;;;;1.73;0.90;;;;;;;19.14;nan;99828.72;4925521;29;20673;-76
2022/10/02 11:17:20;;;;;;;1.50;1.00;;;;;;;19.26;nan;99825.88;4926002;29;20495;-77
2022/10/02 11:20:18;;;;;;;1.20;0.90;;;;;;;19.36;nan;99819.50;4925439;29;20515;-77
2022/10/02 11:23:26;;;;;;;1.00;0.90;;;;;;;19.46;nan;99806.13;4925595;29;20453;-75
2022/10/02 11:26:29;;;;;;;1.00;0.93;;;;;;;19.67;nan;99798.72;4925713;29;20993;-74
2022/10/02 11:29:03;;;;;;;1.17;0.90;;;;;;;19.95;nan;99789.81;4925062;29;20509;-74
2022/10/02 11:31:52;;;;;;;1.00;0.90;;;;;;;20.13;nan;99785.28;4924788;29;21047;-74
2022/10/02 11:34:39;;;;;;;1.10;1.00;;;;;;;20.28;nan;99777.56;4924589;29;21028;-74
2022/10/02 11:37:26;;;;;;;1.50;1.40;;;;;;;20.42;nan;99777.00;4924295;28;20597;-76
2022/10/02 11:40:12;;;;;;;1.77;1.00;;;;;;;20.55;nan;99777.44;4924792;29;20445;-76
2022/10/02 11:42:56;;;;;;;1.60;1.50;;;;;;;20.65;nan;99774.66;4925225;29;20599;-76
2022/10/02 11:45:37;;;;;;;1.43;1.33;;;;;;;20.74;nan;99767.56;4922371;29;20464;-76
2022/10/02 11:48:08;;;;;;;1.07;1.00;;;;;;;20.84;nan;99770.91;4925022;29;20488;-76
2022/10/02 11:50:52;;;;;;;1.43;1.17;;;;;;;20.93;nan;99775.31;4924653;29;20505;-77
2022/10/02 11:53:58;;;;;;;1.13;1.03;;;;;;;20.99;nan;99774.66;4923799;29;20879;-77
2022/10/02 11:56:56;;;;;;;1.30;0.80;;;;;;;20.97;nan;99773.97;4927546;28;20491;-77
2022/10/02 11:59:28;;;;;;;1.43;1.00;;;;;;;20.92;nan;99762.94;4924109;29;20511;-77
2022/10/02 12:02:03;;;;;;;1.83;1.13;;;;;;;20.87;nan;99764.41;4924479;29;20464;-77
2022/10/02 12:04:51;;;;;;;1.50;0.90;;;;;;;20.91;nan;99760.44;4924083;29;20461;-77
2022/10/02 12:07:43;;;;;;;1.27;1.10;;;;;;;20.95;nan;99757.31;4923666;29;20512;-77
2022/10/02 12:10:38;;;;;;;1.30;1.20;;;;;;;20.97;nan;99754.44;4931865;29;20470;-77
2022/10/02 12:13:24;;;;;;;0.93;0.83;;;;;;;20.92;nan;99741.56;4923695;29;20446;-77
2022/10/02 12:15:59;;;;;;;1.53;1.00;;;;;;;20.87;nan;99743.06;4924269;29;20481;-75
2022/10/02 12:18:50;;;;;;;1.87;1.20;;;;;;;20.82;nan;99740.88;4922970;29;20457;-75
2022/10/02 12:28:30;;;;;;;1.00;0.90;;;;;;;20.73;nan;99709.81;4921058;29;21024;-76
2022/10/02 12:31:18;;;;;;;0.90;0.87;;;;;;;20.76;nan;99714.81;4922162;29;21074;-76
2022/10/02 12:34:22;;;;;;;0.90;0.80;;;;;;;20.75;nan;99713.97;4923291;29;20462;-76
2022/10/02 12:37:22;;;;;;;1.30;1.20;;;;;;;20.75;nan;99710.47;4933530;28;20513;-76
2022/10/02 12:40:07;;;;;;;2.50;1.40;;;;;;;20.70;nan;99702.13;4918599;29;20468;-76
2022/10/02 12:43:02;;;;;;;7.23;1.83;;;;;;;20.61;nan;99701.25;4923351;29;21472;-76
2022/10/02 12:45:53;;;;;;;1.20;0.90;;;;;;;20.51;nan;99690.66;4922874;29;20491;-73
2022/10/02 12:48:43;;;;;;;1.10;1.00;;;;;;;20.44;nan;99694.13;4923462;29;20492;-77
2022/10/02 12:51:36;;;;;;;1.00;0.87;;;;;;;20.46;nan;99698.31;4924160;29;20466;-73
2022/10/02 12:54:32;;;;;;;1.10;1.00;;;;;;;20.50;nan;99697.00;4923488;28;20524;-74
2022/10/02 13:00:15;;;;;;;1.30;1.20;;;;;;;20.61;nan;99711.94;4923241;29;20782;-74
2022/10/02 13:03:05;;;;;;;2.70;1.73;;;;;;;20.63;nan;99714.41;4923041;29;20473;-76
2022/10/02 13:05:43;;;;;;;2.70;1.20;;;;;;;20.59;nan;99727.25;4926366;29;20484;-74
2022/10/02 13:08:26;;;;;;;1.30;1.03;;;;;;;20.57;nan;99709.72;4926751;29;20497;-75
2022/10/02 13:11:18;;;;;;;2.77;1.20;;;;;;;20.58;nan;99709.59;4927104;29;20464;-77
2022/10/02 13:14:00;;;;;;;4.30;0.90;;;;;;;20.63;nan;99709.94;4926828;29;20495;-74
2022/10/02 13:16:56;;;;;;;1.50;0.90;;;;;;;20.75;nan;99715.81;4926506;29;20482;-74